Current KBOS METAR: KBOS 161454Z 07006KT 10SM FEW019 SCT050 SCT095 BKN140 OVC200 21/18 A3025 RMK AO2 SLP242 60001 T02110178 53011

Landing Runways: 4R (Jet Aircraft Only), 4L (Non-Jet Aircraft Only)

Departing Runways: 9, 4R, 4L (Non-Jet Aircraft Only)